Time;durP1;ratioP1;P1;durP2;ratioP2;P2;SDS_P1;SDS_P2;PMS_P1;PMS_P2;Temp;Humidity;BMP_temperature;BMP_pressure;BME280_temperature;BME280_humidity;BME280_pressure;Samples;Min_cycle;Max_cycle;Signal;HPM_P1;HPM_P2
2022/09/21 00:01:18;;;;;;;4.38;3.97;;;7.30;99.90;;;;;;4936296;29;20221;-72
2022/09/21 00:03:48;;;;;;;8.88;3.80;;;7.30;99.90;;;;;;4928659;29;20209;-71
2022/09/21 00:06:20;;;;;;;4.13;3.72;;;7.30;99.90;;;;;;4933867;29;20262;-71
2022/09/21 00:08:49;;;;;;;4.40;3.10;;;7.30;99.90;;;;;;4933472;29;20244;-71
2022/09/21 00:11:23;;;;;;;3.67;3.35;;;7.20;99.90;;;;;;4936233;29;20228;-71
2022/09/21 00:13:53;;;;;;;4.80;3.60;;;7.20;99.90;;;;;;4940425;29;20197;-72
2022/09/21 00:16:22;;;;;;;4.05;3.50;;;7.20;99.90;;;;;;4932087;29;20260;-71
2022/09/21 00:18:52;;;;;;;4.22;3.80;;;7.10;99.90;;;;;;4943715;29;20552;-72
2022/09/21 00:21:22;;;;;;;4.88;3.33;;;7.10;99.90;;;;;;4932731;29;20697;-71
2022/09/21 00:23:52;;;;;;;5.30;4.10;;;7.10;99.90;;;;;;4946183;29;20199;-72
2022/09/21 00:26:25;;;;;;;4.60;3.25;;;7.20;99.90;;;;;;4941150;28;20212;-72
2022/09/21 00:28:54;;;;;;;3.28;2.40;;;7.10;99.90;;;;;;4938979;29;20256;-73
2022/09/21 00:31:24;;;;;;;3.47;3.17;;;7.10;99.90;;;;;;4935424;29;20181;-71
2022/09/21 00:33:53;;;;;;;4.93;4.05;;;7.20;99.90;;;;;;4941865;29;20228;-73
2022/09/21 00:36:23;;;;;;;6.82;3.33;;;7.20;99.90;;;;;;4951184;29;20212;-73
2022/09/21 00:38:54;;;;;;;4.15;3.45;;;7.20;99.90;;;;;;4947235;29;20223;-72
2022/09/21 00:41:24;;;;;;;5.55;3.78;;;7.20;99.90;;;;;;4951336;29;20219;-73
2022/09/21 00:44:25;;;;;;;5.35;3.30;;;7.10;99.90;;;;;;4951371;28;20196;-72
2022/09/21 00:46:56;;;;;;;3.45;3.15;;;7.10;99.90;;;;;;4955096;29;20216;-72
2022/09/21 00:49:27;;;;;;;5.22;3.10;;;7.10;99.90;;;;;;4939530;29;20192;-71
2022/09/21 00:51:59;;;;;;;8.52;4.03;;;7.10;99.90;;;;;;4950654;29;20244;-73
2022/09/21 00:54:32;;;;;;;4.68;3.88;;;7.10;99.90;;;;;;4950942;29;20212;-72
2022/09/21 00:57:03;;;;;;;3.75;3.22;;;7.20;99.90;;;;;;4954732;29;20215;-72
2022/09/21 00:59:34;;;;;;;5.90;4.10;;;7.10;99.90;;;;;;4952927;29;20557;-71
2022/09/21 01:02:03;;;;;;;4.65;3.28;;;7.00;99.90;;;;;;4960227;29;20204;-72
2022/09/21 01:04:33;;;;;;;8.13;3.33;;;7.10;99.90;;;;;;4958512;29;20196;-72
2022/09/21 01:07:11;;;;;;;5.55;3.80;;;7.10;99.90;;;;;;4943088;29;20192;-73
2022/09/21 01:09:40;;;;;;;5.63;3.25;;;7.20;99.90;;;;;;4944301;29;20196;-73
2022/09/21 01:12:25;;;;;;;4.78;3.40;;;7.20;99.90;;;;;;4946143;29;20197;-71
2022/09/21 01:15:03;;;;;;;5.07;4.05;;;7.10;99.90;;;;;;4960235;29;20224;-71
2022/09/21 01:17:41;;;;;;;5.47;3.83;;;7.00;99.90;;;;;;4950494;29;20193;-72
2022/09/21 01:20:42;;;;;;;5.25;3.45;;;6.90;99.90;;;;;;4953915;29;20201;-73
2022/09/21 01:23:34;;;;;;;3.45;3.15;;;6.80;99.90;;;;;;4955061;29;20740;-72
2022/09/21 01:26:15;;;;;;;5.28;3.97;;;6.80;99.90;;;;;;4939720;29;20216;-73
2022/09/21 01:29:22;;;;;;;4.70;3.53;;;6.90;99.90;;;;;;4945789;29;20231;-72
2022/09/21 01:31:55;;;;;;;5.13;4.22;;;7.00;99.90;;;;;;4935760;29;20637;-73
2022/09/21 01:34:30;;;;;;;4.88;3.60;;;6.90;99.90;;;;;;4946669;29;20576;-71
2022/09/21 01:37:04;;;;;;;5.68;4.00;;;6.80;99.90;;;;;;4948313;29;20189;-72
2022/09/21 01:39:36;;;;;;;4.45;3.67;;;6.80;99.90;;;;;;4950692;29;20193;-73
2022/09/21 01:42:07;;;;;;;4.03;3.50;;;6.90;99.90;;;;;;4948143;29;20266;-71
2022/09/21 01:44:40;;;;;;;3.90;3.20;;;6.90;99.90;;;;;;4946131;29;20189;-72
2022/09/21 01:47:11;;;;;;;5.43;4.20;;;6.90;99.90;;;;;;4944752;29;20207;-70
2022/09/21 01:49:43;;;;;;;5.82;4.22;;;6.90;99.90;;;;;;4945128;29;20201;-72
2022/09/21 01:52:17;;;;;;;4.85;3.75;;;6.80;99.90;;;;;;4942714;29;20240;-72
2022/09/21 01:54:50;;;;;;;6.85;4.00;;;6.80;99.90;;;;;;4937350;29;20201;-72
2022/09/21 01:57:26;;;;;;;4.07;3.55;;;6.80;99.90;;;;;;4937731;29;20215;-72
2022/09/21 01:59:58;;;;;;;4.43;3.60;;;6.80;99.90;;;;;;4937301;29;20221;-72
2022/09/21 02:02:32;;;;;;;5.13;3.40;;;6.80;99.90;;;;;;4935516;29;20212;-72
2022/09/21 02:05:02;;;;;;;5.57;4.15;;;6.80;99.90;;;;;;4938471;28;20213;-73
2022/09/21 02:07:32;;;;;;;5.72;4.15;;;6.80;99.90;;;;;;4941408;29;20674;-72
2022/09/21 02:10:01;;;;;;;4.60;4.15;;;6.70;99.90;;;;;;4943071;29;20657;-72
2022/09/21 02:12:31;;;;;;;5.03;4.28;;;6.70;99.90;;;;;;4939165;28;20244;-72
2022/09/21 02:15:02;;;;;;;4.50;4.10;;;6.70;99.90;;;;;;4937666;29;20236;-72
2022/09/21 02:17:40;;;;;;;4.13;3.15;;;6.70;99.90;;;;;;4938938;29;20817;-73
2022/09/21 02:20:19;;;;;;;4.40;3.65;;;6.70;99.90;;;;;;4941961;29;20203;-72
2022/09/21 02:23:00;;;;;;;5.70;3.75;;;6.70;99.90;;;;;;4928255;29;20220;-73
2022/09/21 02:25:38;;;;;;;5.82;4.07;;;6.60;99.90;;;;;;4938594;29;20220;-72
2022/09/21 02:28:13;;;;;;;9.88;7.13;;;6.50;99.90;;;;;;4940423;29;20200;-72
2022/09/21 02:30:50;;;;;;;5.07;4.57;;;6.50;99.90;;;;;;4952891;29;20623;-72
2022/09/21 02:33:26;;;;;;;5.15;3.67;;;6.60;99.90;;;;;;4925500;29;20737;-73
2022/09/21 02:36:00;;;;;;;5.15;3.58;;;6.60;99.90;;;;;;4933917;29;20713;-71
2022/09/21 02:38:34;;;;;;;4.10;3.20;;;6.50;99.90;;;;;;4931081;29;20271;-72
2022/09/21 02:41:10;;;;;;;7.38;4.32;;;6.60;99.90;;;;;;4940001;29;20256;-72
2022/09/21 02:43:44;;;;;;;4.80;4.05;;;6.70;99.90;;;;;;4942689;28;20200;-72
2022/09/21 02:46:19;;;;;;;3.90;3.40;;;6.60;99.90;;;;;;4933308;29;20272;-71
2022/09/21 02:48:50;;;;;;;5.07;3.78;;;6.50;99.90;;;;;;4935783;29;20200;-71
2022/09/21 02:51:25;;;;;;;6.95;4.47;;;6.60;99.90;;;;;;4944325;29;20280;-72
2022/09/21 02:53:55;;;;;;;5.43;3.60;;;6.60;99.90;;;;;;4937782;29;20199;-73
2022/09/21 02:56:25;;;;;;;5.53;4.35;;;6.50;99.90;;;;;;4915115;29;20226;-71
2022/09/21 02:58:58;;;;;;;5.15;3.95;;;6.50;99.90;;;;;;4932514;29;20193;-72
2022/09/21 03:01:28;;;;;;;5.05;4.20;;;6.60;99.90;;;;;;4936508;29;20196;-72
2022/09/21 03:03:57;;;;;;;5.53;3.58;;;6.60;99.90;;;;;;4931756;29;20206;-72
2022/09/21 03:06:26;;;;;;;4.63;3.90;;;6.60;99.90;;;;;;4947327;29;20231;-71
2022/09/21 03:08:56;;;;;;;5.22;4.68;;;6.60;99.90;;;;;;4935652;29;20219;-72
2022/09/21 03:11:25;;;;;;;4.72;3.55;;;6.50;99.90;;;;;;4930607;29;20247;-71
2022/09/21 03:13:53;;;;;;;6.53;4.45;;;6.60;99.90;;;;;;4931755;29;20193;-71
2022/09/21 03:16:24;;;;;;;6.75;3.63;;;6.60;99.90;;;;;;4930079;29;20784;-72
2022/09/21 03:18:54;;;;;;;5.72;4.07;;;6.70;99.90;;;;;;4940157;29;20315;-73
2022/09/21 03:21:22;;;;;;;3.85;2.85;;;6.70;99.90;;;;;;4924627;29;20224;-71
2022/09/21 03:23:51;;;;;;;8.20;4.68;;;6.90;99.90;;;;;;4932946;29;20208;-72
2022/09/21 03:26:21;;;;;;;8.25;3.85;;;6.90;99.90;;;;;;4935252;29;20292;-72
2022/09/21 03:28:49;;;;;;;3.95;3.20;;;7.00;99.90;;;;;;4934898;29;20189;-71
2022/09/21 03:31:18;;;;;;;4.25;3.83;;;7.00;99.90;;;;;;4936441;29;20201;-71
2022/09/21 03:33:46;;;;;;;4.07;3.72;;;7.00;99.90;;;;;;4935156;29;20236;-71
2022/09/21 03:36:17;;;;;;;5.30;3.92;;;7.10;99.90;;;;;;4931141;29;20209;-71
2022/09/21 03:38:48;;;;;;;7.53;4.05;;;7.20;99.90;;;;;;4936613;29;20201;-72
2022/09/21 03:41:18;;;;;;;4.07;3.13;;;7.20;99.90;;;;;;4936776;29;20243;-73
2022/09/21 03:43:46;;;;;;;3.65;3.35;;;7.00;99.90;;;;;;4935008;29;20209;-73
2022/09/21 03:46:15;;;;;;;5.35;4.03;;;7.00;99.90;;;;;;4936954;29;20274;-72
2022/09/21 03:48:46;;;;;;;3.47;3.17;;;7.00;99.90;;;;;;4923854;29;20251;-71
2022/09/21 03:51:16;;;;;;;4.82;4.32;;;6.90;99.90;;;;;;4941609;29;20222;-72
2022/09/21 03:53:44;;;;;;;3.55;3.20;;;6.90;99.90;;;;;;4942059;29;20203;-72
2022/09/21 03:56:12;;;;;;;4.72;3.97;;;6.80;99.90;;;;;;4935468;29;20216;-71
2022/09/21 03:58:41;;;;;;;5.20;3.03;;;6.80;99.90;;;;;;4933837;29;20675;-71
2022/09/21 04:01:09;;;;;;;3.83;2.92;;;6.80;99.90;;;;;;4919812;29;20659;-72
2022/09/21 04:03:38;;;;;;;4.03;3.63;;;6.80;99.90;;;;;;4943703;29;20645;-72
2022/09/21 04:06:09;;;;;;;4.22;3.65;;;6.70;99.90;;;;;;4947577;29;20242;-72
2022/09/21 04:08:40;;;;;;;3.85;3.38;;;6.60;99.90;;;;;;4940264;29;20198;-72
2022/09/21 04:11:11;;;;;;;3.85;3.47;;;6.50;99.90;;;;;;4934548;29;20204;-73
2022/09/21 04:13:40;;;;;;;7.00;4.00;;;6.50;99.90;;;;;;4936874;29;20247;-71
2022/09/21 04:16:09;;;;;;;6.50;3.65;;;6.60;99.90;;;;;;4940324;29;20255;-71
2022/09/21 04:18:38;;;;;;;4.88;3.65;;;6.50;99.90;;;;;;4941020;29;20279;-71
2022/09/21 04:21:06;;;;;;;4.78;4.32;;;6.50;99.90;;;;;;4934293;29;20560;-71
2022/09/21 04:23:35;;;;;;;5.28;3.10;;;6.60;99.90;;;;;;4945409;28;20256;-71
2022/09/21 04:26:05;;;;;;;4.90;4.45;;;6.60;99.90;;;;;;4951163;29;20236;-72
2022/09/21 04:28:33;;;;;;;5.57;3.10;;;6.50;99.90;;;;;;4944939;29;20616;-72
2022/09/21 04:31:02;;;;;;;4.22;3.83;;;6.40;99.90;;;;;;4942246;29;20224;-72
2022/09/21 04:33:30;;;;;;;5.32;4.00;;;6.40;99.90;;;;;;4939901;29;20255;-70
2022/09/21 04:35:59;;;;;;;3.88;3.47;;;6.40;99.90;;;;;;4941124;29;20216;-71
2022/09/21 04:38:27;;;;;;;4.10;3.33;;;6.40;99.90;;;;;;4938709;29;20192;-71
2022/09/21 04:40:56;;;;;;;5.00;3.08;;;6.40;99.90;;;;;;4938377;29;20243;-71
2022/09/21 04:43:26;;;;;;;6.20;3.88;;;6.40;99.90;;;;;;4934327;29;20211;-72
2022/09/21 04:45:55;;;;;;;3.95;3.45;;;6.40;99.90;;;;;;4941629;29;20565;-71
2022/09/21 04:48:23;;;;;;;6.53;3.95;;;6.40;99.90;;;;;;4941834;29;20221;-72
2022/09/21 04:50:51;;;;;;;4.80;3.85;;;6.40;99.90;;;;;;4946693;29;20195;-72
2022/09/21 04:53:20;;;;;;;6.82;3.78;;;6.40;99.90;;;;;;4927344;29;20189;-72
2022/09/21 04:55:48;;;;;;;3.83;2.78;;;6.40;99.90;;;;;;4943137;29;20223;-71
2022/09/21 04:58:17;;;;;;;6.00;3.90;;;6.50;99.90;;;;;;4939350;29;20204;-72
2022/09/21 05:01:03;;;;;;;4.80;3.60;;;6.50;99.90;;;;;;4935190;29;20669;-72
2022/09/21 05:03:31;;;;;;;3.60;3.25;;;6.50;99.90;;;;;;4941791;29;20288;-71
2022/09/21 05:06:00;;;;;;;5.53;3.72;;;6.50;99.90;;;;;;4949055;29;20222;-72
2022/09/21 05:11:14;;;;;;;4.40;3.88;;;6.50;99.90;;;;;;4922498;29;20599;-73
2022/09/21 05:13:43;;;;;;;3.85;3.47;;;6.60;99.90;;;;;;4933040;29;20192;-73
2022/09/21 05:16:13;;;;;;;4.90;4.15;;;6.60;99.90;;;;;;4951601;29;20230;-72
2022/09/21 05:18:41;;;;;;;4.13;3.35;;;6.70;99.90;;;;;;4939951;29;20296;-72
2022/09/21 05:21:12;;;;;;;4.13;3.35;;;6.70;99.90;;;;;;4941353;29;20248;-73
2022/09/21 05:23:41;;;;;;;6.10;4.32;;;6.70;99.90;;;;;;4945700;29;20267;-72
2022/09/21 05:26:09;;;;;;;4.30;3.45;;;6.70;99.90;;;;;;4936692;29;20272;-71
2022/09/21 05:28:38;;;;;;;8.82;4.03;;;6.80;99.90;;;;;;4944162;29;20200;-73
2022/09/21 05:31:24;;;;;;;4.07;3.67;;;6.90;99.90;;;;;;4945864;29;20287;-71
2022/09/21 05:33:57;;;;;;;5.68;4.45;;;6.90;99.90;;;;;;4936438;29;20201;-72
2022/09/21 05:36:41;;;;;;;4.13;3.70;;;7.00;99.90;;;;;;4936638;29;20562;-71
2022/09/21 05:39:11;;;;;;;7.28;4.15;;;7.10;99.90;;;;;;4935359;29;20197;-71
2022/09/21 05:41:40;;;;;;;9.30;4.20;;;7.20;99.90;;;;;;4943823;29;20240;-72
2022/09/21 05:44:13;;;;;;;6.30;4.45;;;7.20;99.90;;;;;;4936873;29;20708;-72
2022/09/21 05:46:48;;;;;;;4.82;4.40;;;7.30;99.90;;;;;;4949886;29;20226;-72
2022/09/21 05:49:32;;;;;;;4.38;3.55;;;7.50;99.90;;;;;;4939993;29;20226;-73
2022/09/21 05:52:08;;;;;;;5.53;3.60;;;7.60;99.90;;;;;;4939783;29;20224;-73
2022/09/21 05:54:52;;;;;;;6.55;4.57;;;7.80;99.90;;;;;;4945183;29;20193;-72
2022/09/21 05:57:26;;;;;;;4.75;4.25;;;7.70;99.90;;;;;;4934452;29;20215;-72
2022/09/21 06:00:08;;;;;;;5.75;4.40;;;7.80;99.90;;;;;;4937775;29;20677;-73
2022/09/21 06:03:04;;;;;;;5.85;4.30;;;7.90;99.90;;;;;;4943508;29;20200;-72
2022/09/21 06:05:33;;;;;;;4.88;3.70;;;8.00;99.90;;;;;;4938194;29;20209;-72
2022/09/21 06:08:01;;;;;;;4.40;3.30;;;8.00;99.90;;;;;;4941634;29;20192;-71
2022/09/21 06:10:34;;;;;;;5.50;3.97;;;8.00;99.90;;;;;;4945492;29;20765;-72
2022/09/21 06:13:02;;;;;;;5.05;4.55;;;8.10;99.90;;;;;;4944910;29;20556;-72
2022/09/21 06:15:31;;;;;;;8.75;5.95;;;8.20;99.90;;;;;;4940307;29;20595;-72
2022/09/21 06:18:00;;;;;;;6.50;5.05;;;8.20;99.90;;;;;;4943692;29;20201;-72
2022/09/21 06:20:29;;;;;;;6.75;4.30;;;8.20;99.90;;;;;;4935924;29;20197;-72
2022/09/21 06:23:01;;;;;;;6.68;5.07;;;8.30;99.90;;;;;;4937123;29;20193;-73
2022/09/21 06:25:29;;;;;;;6.50;3.42;;;8.40;99.90;;;;;;4942283;29;20225;-71
2022/09/21 06:28:03;;;;;;;6.28;4.90;;;8.40;99.90;;;;;;4930547;29;20193;-71
2022/09/21 06:30:33;;;;;;;6.35;5.68;;;8.50;99.90;;;;;;4931090;29;20206;-72
2022/09/21 06:33:04;;;;;;;9.07;4.55;;;8.70;99.90;;;;;;4932191;29;20716;-71
2022/09/21 06:35:35;;;;;;;6.43;4.72;;;8.90;99.90;;;;;;4937527;29;20213;-71
2022/09/21 06:38:05;;;;;;;15.23;4.57;;;9.10;99.90;;;;;;4939009;29;20189;-73
2022/09/21 06:40:35;;;;;;;11.87;6.00;;;8.90;99.90;;;;;;4936817;29;20641;-73
2022/09/21 06:43:05;;;;;;;5.40;4.13;;;9.00;99.90;;;;;;4929869;29;20535;-72
2022/09/21 06:45:34;;;;;;;7.10;4.95;;;9.00;99.90;;;;;;4935137;29;20248;-73
2022/09/21 06:48:04;;;;;;;6.87;3.77;;;9.00;99.90;;;;;;4932961;29;20558;-72
2022/09/21 06:50:33;;;;;;;4.77;3.50;;;9.00;99.90;;;;;;4932153;29;20507;-72
2022/09/21 06:53:02;;;;;;;5.17;4.40;;;9.20;99.90;;;;;;4938477;29;20447;-72
2022/09/21 06:55:32;;;;;;;10.20;6.83;;;9.30;99.90;;;;;;4939497;29;20899;-73
2022/09/21 06:58:01;;;;;;;7.22;4.97;;;9.30;99.90;;;;;;4933249;29;20441;-72
2022/09/21 07:00:31;;;;;;;10.73;6.73;;;9.30;99.90;;;;;;4933324;29;20208;-71
2022/09/21 07:02:59;;;;;;;8.93;7.10;;;9.40;99.90;;;;;;4937407;29;20953;-72
2022/09/21 07:05:29;;;;;;;9.63;6.60;;;9.40;99.90;;;;;;4935881;29;20490;-72
2022/09/21 07:07:58;;;;;;;10.80;6.00;;;9.60;99.90;;;;;;4936689;29;20511;-72
2022/09/21 07:10:27;;;;;;;9.80;6.43;;;9.80;99.90;;;;;;4936794;29;20431;-71
2022/09/21 07:12:55;;;;;;;7.07;5.37;;;9.80;99.90;;;;;;4935987;29;20479;-72
2022/09/21 07:15:27;;;;;;;11.30;6.83;;;10.00;99.90;;;;;;4934935;29;20476;-71
2022/09/21 07:17:55;;;;;;;22.93;6.10;;;10.10;99.90;;;;;;4931401;29;20484;-73
2022/09/21 07:20:34;;;;;;;6.23;4.70;;;10.30;99.90;;;;;;4935256;29;20975;-71
2022/09/21 07:23:10;;;;;;;6.73;5.90;;;10.40;99.90;;;;;;4919978;29;20448;-71
2022/09/21 07:25:38;;;;;;;9.47;5.90;;;10.60;99.90;;;;;;4933836;29;20491;-71
2022/09/21 07:28:07;;;;;;;11.37;5.57;;;10.70;99.90;;;;;;4934682;29;20938;-71
2022/09/21 07:30:37;;;;;;;7.60;5.53;;;10.90;99.90;;;;;;4941857;29;20444;-72
2022/09/21 07:33:06;;;;;;;7.17;5.93;;;11.00;99.90;;;;;;4939200;29;20449;-71
2022/09/21 07:35:35;;;;;;;6.43;5.27;;;11.10;99.90;;;;;;4939509;29;20464;-72
2022/09/21 07:38:07;;;;;;;7.20;5.10;;;11.10;99.90;;;;;;4939886;29;20447;-71
2022/09/21 07:40:36;;;;;;;5.20;4.30;;;11.10;99.90;;;;;;4943915;29;20832;-72
2022/09/21 07:43:04;;;;;;;8.47;5.17;;;11.00;99.90;;;;;;4945759;29;20468;-72
2022/09/21 07:45:33;;;;;;;14.07;4.97;;;11.20;99.90;;;;;;4940679;29;20511;-72
2022/09/21 07:48:03;;;;;;;7.30;4.80;;;11.20;99.90;;;;;;4938137;29;20448;-72
2022/09/21 07:50:33;;;;;;;5.87;4.37;;;11.10;99.90;;;;;;4933708;29;20436;-73
2022/09/21 07:53:06;;;;;;;4.63;4.00;;;11.20;99.90;;;;;;4934410;29;20451;-72
2022/09/21 07:55:35;;;;;;;6.73;5.43;;;11.30;99.90;;;;;;4932633;29;20443;-72
2022/09/21 08:00:50;;;;;;;6.60;5.47;;;11.60;99.90;;;;;;4935323;29;20448;-71
2022/09/21 08:03:18;;;;;;;6.50;5.20;;;11.60;99.90;;;;;;4937038;29;20440;-71
2022/09/21 08:05:46;;;;;;;5.07;4.17;;;11.70;99.90;;;;;;4943216;29;21069;-72
2022/09/21 08:08:16;;;;;;;5.67;5.10;;;11.80;99.90;;;;;;4933620;29;20502;-72
2022/09/21 08:10:45;;;;;;;5.77;4.13;;;12.00;99.90;;;;;;4936656;29;20443;-71
2022/09/21 08:13:13;;;;;;;6.80;4.40;;;12.40;99.90;;;;;;4941669;29;20486;-72
2022/09/21 08:15:42;;;;;;;6.20;4.67;;;12.60;99.90;;;;;;4934037;29;20469;-72
2022/09/21 08:18:17;;;;;;;6.90;4.57;;;12.70;99.90;;;;;;4935275;29;20542;-72
2022/09/21 08:20:54;;;;;;;4.43;4.03;;;12.70;99.90;;;;;;4937368;29;20427;-72
2022/09/21 08:23:24;;;;;;;13.13;3.90;;;12.70;99.90;;;;;;4935221;29;20818;-72
2022/09/21 08:25:53;;;;;;;8.40;5.53;;;12.80;99.90;;;;;;4936040;29;20466;-72
2022/09/21 08:28:21;;;;;;;5.17;3.70;;;13.00;99.90;;;;;;4940421;29;20444;-72
2022/09/21 08:30:50;;;;;;;5.20;4.43;;;12.90;96.50;;;;;;4937951;29;20964;-72
2022/09/21 08:33:18;;;;;;;7.60;4.80;;;12.80;99.90;;;;;;4943417;29;20433;-71
2022/09/21 08:35:52;;;;;;;6.73;4.37;;;12.90;99.90;;;;;;4937380;29;20435;-72
2022/09/21 08:38:22;;;;;;;8.73;4.70;;;12.80;99.90;;;;;;4934820;29;20422;-71
2022/09/21 08:40:52;;;;;;;6.07;4.57;;;13.00;99.90;;;;;;4936700;29;20451;-72
2022/09/21 08:43:31;;;;;;;8.40;5.00;;;13.00;99.90;;;;;;4920564;29;20801;-73
2022/09/21 08:46:01;;;;;;;8.33;4.93;;;12.90;99.90;;;;;;4938566;29;20465;-71
2022/09/21 08:48:32;;;;;;;6.50;4.10;;;13.10;99.90;;;;;;4933665;29;20422;-71
2022/09/21 08:51:07;;;;;;;6.83;4.43;;;13.30;56.90;;;;;;4936317;29;20482;-72
2022/09/21 08:53:40;;;;;;;5.70;4.03;;;13.40;47.80;;;;;;4940199;29;20455;-72
2022/09/21 08:56:11;;;;;;;6.47;4.47;;;13.40;1.00;;;;;;4938779;29;20839;-73
2022/09/21 08:58:40;;;;;;;6.93;3.40;;;13.50;33.60;;;;;;4932864;29;20871;-72
2022/09/21 09:01:34;;;;;;;7.20;4.27;;;13.60;27.30;;;;;;4944681;29;20419;-72
2022/09/21 09:04:31;;;;;;;6.00;4.20;;;13.70;1.00;;;;;;4949821;29;20415;-72
2022/09/21 09:07:09;;;;;;;12.10;3.47;;;13.70;6.90;;;;;;4946740;29;20542;-72
2022/09/21 09:09:58;;;;;;;4.30;3.33;;;13.80;1.00;;;;;;4940316;29;20419;-73
2022/09/21 09:12:41;;;;;;;6.70;3.93;;;13.60;1.00;;;;;;4945514;29;20419;-72
2022/09/21 09:15:44;;;;;;;4.50;2.93;;;13.30;1.00;;;;;;4941432;29;20468;-73
2022/09/21 09:18:21;;;;;;;8.00;4.10;;;13.10;7.10;;;;;;4957697;29;20421;-73
2022/09/21 09:20:56;;;;;;;8.20;4.10;;;12.90;99.90;;;;;;4953040;29;20422;-73
2022/09/21 09:23:27;;;;;;;9.53;3.67;;;12.90;99.90;;;;;;4954732;29;20418;-75
2022/09/21 09:26:05;;;;;;;5.60;4.00;;;12.80;99.90;;;;;;4953943;29;20483;-73
2022/09/21 09:28:38;;;;;;;5.10;3.30;;;12.90;99.90;;;;;;4953668;29;20432;-73
2022/09/21 09:31:13;;;;;;;4.60;4.00;;;13.00;99.90;;;;;;4958675;29;20531;-73
2022/09/21 09:33:52;;;;;;;5.83;3.63;;;13.20;99.90;;;;;;4961256;29;20426;-73
2022/09/21 09:36:22;;;;;;;4.87;3.30;;;13.20;73.40;;;;;;4949352;29;20456;-73
2022/09/21 09:39:13;;;;;;;4.30;3.30;;;13.40;85.10;;;;;;4964145;29;20413;-72
2022/09/21 09:42:13;;;;;;;6.97;4.17;;;13.40;14.70;;;;;;4938915;29;20436;-71
2022/09/21 09:45:02;;;;;;;10.37;3.57;;;13.50;36.40;;;;;;4937319;29;20445;-72
2022/09/21 09:47:44;;;;;;;6.77;2.83;;;13.80;1.00;;;;;;4941377;29;20437;-72
2022/09/21 09:50:20;;;;;;;4.33;3.20;;;13.90;13.90;;;;;;4945227;29;20451;-71
2022/09/21 09:52:53;;;;;;;2.80;2.33;;;14.20;1.00;;;;;;4932001;29;20429;-73
2022/09/21 09:55:25;;;;;;;5.07;2.60;;;14.10;1.00;;;;;;4942978;29;20468;-71
2022/09/21 09:57:57;;;;;;;3.03;2.67;;;14.30;1.00;;;;;;4944938;29;20498;-72
2022/09/21 10:00:26;;;;;;;5.10;3.00;;;14.50;99.90;;;;;;4936037;29;20495;-71
2022/09/21 10:02:57;;;;;;;2.90;2.60;;;14.90;99.90;;;;;;4927437;29;20896;-71
2022/09/21 10:05:32;;;;;;;3.17;2.40;;;14.90;99.90;;;;;;4944583;29;20456;-72
2022/09/21 10:08:01;;;;;;;3.03;1.83;;;15.10;99.90;;;;;;4936679;29;20459;-72
2022/09/21 10:10:35;;;;;;;4.50;2.47;;;15.30;99.90;;;;;;4922974;29;20495;-72
2022/09/21 10:13:13;;;;;;;7.43;2.33;;;15.50;99.90;;;;;;4935817;29;20539;-71
2022/09/21 10:15:49;;;;;;;3.97;2.10;;;15.80;99.90;;;;;;4953066;23;21042;-71
2022/09/21 10:18:22;;;;;;;2.30;1.63;;;16.10;99.90;;;;;;4956045;28;20441;-71
2022/09/21 10:20:55;;;;;;;4.13;1.53;;;16.60;99.90;;;;;;4953056;28;20439;-71
2022/09/21 10:23:25;;;;;;;2.17;1.40;;;16.90;99.90;;;;;;4961824;28;20471;-72
2022/09/21 10:26:00;;;;;;;3.63;1.17;;;17.10;99.90;;;;;;4967387;28;20450;-72
2022/09/21 10:28:30;;;;;;;2.30;1.60;;;16.90;99.90;;;;;;4949359;28;20417;-71
2022/09/21 10:31:12;;;;;;;9.00;1.60;;;17.00;99.90;;;;;;4949542;28;20884;-71
2022/09/21 10:33:53;;;;;;;1.80;1.10;;;17.40;99.90;;;;;;4952257;28;20765;-72
2022/09/21 10:36:30;;;;;;;2.13;1.30;;;17.50;97.40;;;;;;4951295;28;20841;-72
2022/09/21 10:39:18;;;;;;;1.83;1.00;;;17.70;91.90;;;;;;4952428;28;20447;-71
2022/09/21 10:41:57;;;;;;;3.33;1.00;;;17.10;85.50;;;;;;4950808;28;20440;-72
2022/09/21 10:44:34;;;;;;;1.27;0.87;;;16.60;86.20;;;;;;4949395;28;20978;-71
2022/09/21 10:47:15;;;;;;;2.00;1.57;;;16.30;93.20;;;;;;4945186;28;20481;-72
2022/09/21 10:49:49;;;;;;;2.90;0.97;;;16.20;96.40;;;;;;4955445;28;20506;-73
2022/09/21 10:52:20;;;;;;;2.10;1.20;;;16.30;92.80;;;;;;4949827;28;20506;-72
2022/09/21 10:54:51;;;;;;;2.93;1.27;;;16.50;80.00;;;;;;4952169;28;20467;-72
2022/09/21 10:57:22;;;;;;;4.90;3.40;;;16.70;74.60;;;;;;4956169;28;20962;-72
2022/09/21 10:59:52;;;;;;;1.80;1.03;;;17.10;65.90;;;;;;4956336;28;20421;-72
2022/09/21 11:02:34;;;;;;;1.40;0.90;;;17.40;55.90;;;;;;4949065;28;20785;-72
2022/09/21 11:05:11;;;;;;;4.00;2.13;;;17.60;49.20;;;;;;4946356;28;20474;-73
2022/09/21 11:07:47;;;;;;;2.43;1.20;;;17.80;49.90;;;;;;4950385;28;20600;-72
2022/09/21 11:10:22;;;;;;;2.50;1.13;;;18.10;53.00;;;;;;4952564;28;20459;-72
2022/09/21 11:13:00;;;;;;;3.10;1.50;;;17.70;47.70;;;;;;4954931;28;20426;-73
2022/09/21 11:15:41;;;;;;;1.83;1.47;;;17.50;49.30;;;;;;4948760;28;20445;-71
2022/09/21 11:18:19;;;;;;;1.70;1.40;;;17.40;49.00;;;;;;4949764;28;20436;-71
2022/09/21 11:20:54;;;;;;;2.97;1.00;;;17.10;43.90;;;;;;4954346;28;20446;-71
2022/09/21 11:23:36;;;;;;;4.60;1.33;;;17.20;44.20;;;;;;4957402;28;20413;-72
2022/09/21 11:26:11;;;;;;;1.60;1.10;;;17.20;41.60;;;;;;4951756;28;20438;-72
2022/09/21 11:28:46;;;;;;;2.03;1.27;;;17.10;36.90;;;;;;4948914;28;20439;-73
2022/09/21 11:31:37;;;;;;;2.03;0.90;;;16.90;33.40;;;;;;4952700;28;20936;-72
2022/09/21 11:34:30;;;;;;;2.40;1.47;;;16.60;30.40;;;;;;4959065;28;20498;-72
2022/09/21 11:37:08;;;;;;;1.40;0.80;;;16.60;31.50;;;;;;4949042;28;20498;-73
2022/09/21 11:39:46;;;;;;;1.70;1.10;;;16.50;29.50;;;;;;4953374;28;20455;-72
2022/09/21 11:42:31;;;;;;;2.50;1.23;;;16.40;32.30;;;;;;4956605;28;20444;-72
2022/09/21 11:45:01;;;;;;;1.40;0.80;;;16.30;32.10;;;;;;4955807;28;20459;-73
2022/09/21 11:47:44;;;;;;;1.50;1.00;;;16.50;36.40;;;;;;4956899;28;20936;-72
2022/09/21 11:50:25;;;;;;;4.73;0.93;;;16.60;34.10;;;;;;4962671;28;20485;-73
2022/09/21 11:53:12;;;;;;;2.40;1.07;;;16.60;43.30;;;;;;4955431;28;20409;-72
2022/09/21 11:56:02;;;;;;;1.93;1.33;;;16.60;29.30;;;;;;4951974;28;20465;-72
2022/09/21 11:58:38;;;;;;;2.60;1.43;;;16.70;27.00;;;;;;4956099;28;20430;-72
2022/09/21 12:01:19;;;;;;;3.30;1.00;;;16.60;27.70;;;;;;4956443;28;20457;-72
2022/09/21 12:04:06;;;;;;;1.57;1.00;;;16.40;27.00;;;;;;4961438;28;20435;-72
2022/09/21 12:06:46;;;;;;;1.77;1.27;;;16.10;28.20;;;;;;4966548;28;20438;-73
2022/09/21 12:09:32;;;;;;;1.83;1.33;;;15.90;27.10;;;;;;4949935;28;20418;-71
2022/09/21 12:12:08;;;;;;;1.83;1.23;;;15.90;29.50;;;;;;4954399;28;20418;-70
2022/09/21 12:14:43;;;;;;;1.30;0.80;;;16.10;31.10;;;;;;4951639;28;20441;-71
2022/09/21 12:17:16;;;;;;;2.37;1.13;;;16.30;28.40;;;;;;4955721;28;20458;-72
2022/09/21 12:19:49;;;;;;;1.53;1.00;;;16.50;23.90;;;;;;4956014;28;20938;-71
2022/09/21 12:22:22;;;;;;;3.00;1.80;;;16.80;21.40;;;;;;4947307;28;20438;-72
2022/09/21 12:24:54;;;;;;;1.40;0.90;;;16.90;17.70;;;;;;4949838;28;20831;-72
2022/09/21 12:27:28;;;;;;;1.87;1.30;;;16.90;17.30;;;;;;4952725;28;20446;-72
2022/09/21 12:30:02;;;;;;;2.03;1.30;;;16.80;16.20;;;;;;4953098;28;20436;-72
2022/09/21 12:32:52;;;;;;;2.17;1.27;;;16.70;18.10;;;;;;4952931;28;20532;-71
2022/09/21 12:35:28;;;;;;;3.97;0.80;;;16.60;18.60;;;;;;4955811;28;20872;-71
2022/09/21 12:38:03;;;;;;;1.77;1.00;;;16.30;17.70;;;;;;4947277;28;20443;-72
2022/09/21 12:40:38;;;;;;;3.67;2.90;;;16.10;26.90;;;;;;4950469;28;20802;-71
2022/09/21 12:43:17;;;;;;;2.63;1.43;;;16.00;19.20;;;;;;4947403;28;20423;-71
2022/09/21 12:45:55;;;;;;;2.33;1.10;;;16.00;18.40;;;;;;4953357;28;20854;-73
2022/09/21 12:48:30;;;;;;;1.57;1.10;;;16.10;18.80;;;;;;4956824;28;20449;-72
2022/09/21 12:51:06;;;;;;;1.40;0.90;;;16.00;16.60;;;;;;4956187;28;20427;-71
2022/09/21 12:53:37;;;;;;;2.17;1.23;;;15.80;16.30;;;;;;4954525;28;20436;-71
2022/09/21 12:56:20;;;;;;;2.07;1.10;;;15.80;17.90;;;;;;4956095;28;20501;-71
2022/09/21 12:59:00;;;;;;;1.70;1.23;;;15.90;18.80;;;;;;4952194;28;20410;-71
2022/09/21 13:01:33;;;;;;;4.00;0.80;;;16.20;18.90;;;;;;4949243;28;20941;-71
2022/09/21 13:04:17;;;;;;;2.53;1.10;;;16.20;16.30;;;;;;4953425;28;20433;-71
2022/09/21 13:07:03;;;;;;;3.00;1.13;;;16.40;13.90;;;;;;4950928;28;20422;-72
2022/09/21 13:09:32;;;;;;;1.30;0.90;;;16.50;12.30;;;;;;4950126;28;21014;-71
2022/09/21 13:12:07;;;;;;;3.03;0.80;;;16.70;11.40;;;;;;4955082;28;20445;-71
2022/09/21 13:14:41;;;;;;;1.80;0.90;;;16.80;7.90;;;;;;4955779;28;20460;-71
2022/09/21 13:17:21;;;;;;;3.20;0.97;;;16.80;6.30;;;;;;4954485;28;20431;-72
2022/09/21 13:19:59;;;;;;;1.40;0.90;;;16.80;6.50;;;;;;4952192;28;20413;-70
2022/09/21 13:22:32;;;;;;;1.63;1.23;;;16.90;6.50;;;;;;4953393;28;20476;-72
2022/09/21 13:25:05;;;;;;;2.47;1.20;;;16.90;6.90;;;;;;4955073;28;20451;-72
2022/09/21 13:27:59;;;;;;;4.40;2.13;;;16.40;7.40;;;;;;4954434;28;20881;-70
2022/09/21 13:30:41;;;;;;;2.97;1.47;;;16.00;7.90;;;;;;4953877;28;20413;-71
2022/09/21 13:33:32;;;;;;;1.83;1.10;;;15.70;9.20;;;;;;4955236;28;20443;-72